Time;durP1;ratioP1;P1;durP2;ratioP2;P2;SDS_P1;SDS_P2;PMS_P1;PMS_P2;Temp;Humidity;BMP_temperature;BMP_pressure;BME280_temperature;BME280_humidity;BME280_pressure;Samples;Min_cycle;Max_cycle;Signal;HPM_P1;HPM_P2
2023/01/24 00:00:30;;;;;;;37.00;21.50;;;3.20;99.90;;;;;;4865516;29;20124;-81
2023/01/24 00:02:56;;;;;;;31.83;20.50;;;3.20;99.90;;;;;;4866237;29;20124;-81
2023/01/24 00:05:21;;;;;;;32.53;20.73;;;3.20;99.90;;;;;;4861853;29;20056;-81
2023/01/24 00:07:47;;;;;;;35.23;21.50;;;3.20;99.90;;;;;;4830006;29;20045;-81
2023/01/24 00:10:13;;;;;;;35.27;21.20;;;3.20;99.90;;;;;;4830307;29;20045;-81
2023/01/24 00:12:39;;;;;;;35.97;20.87;;;3.20;99.90;;;;;;4815002;29;20101;-80
2023/01/24 00:15:05;;;;;;;34.97;21.27;;;3.20;99.90;;;;;;4833271;29;20045;-81
2023/01/24 00:17:31;;;;;;;36.57;21.57;;;3.20;99.90;;;;;;4830425;29;20149;-81
2023/01/24 00:19:57;;;;;;;36.20;22.43;;;3.20;99.90;;;;;;4862100;29;20082;-81
2023/01/24 00:22:23;;;;;;;43.93;24.27;;;3.20;99.90;;;;;;4817916;29;20049;-81
2023/01/24 00:24:48;;;;;;;36.90;23.60;;;3.20;99.90;;;;;;4831771;29;20120;-81
2023/01/24 00:27:15;;;;;;;39.10;22.87;;;3.20;99.90;;;;;;4863174;29;20045;-81
2023/01/24 00:29:41;;;;;;;37.90;22.70;;;3.20;99.90;;;;;;4852412;29;20057;-82
2023/01/24 00:32:07;;;;;;;38.93;24.13;;;3.20;99.90;;;;;;4880056;29;20060;-82
2023/01/24 00:34:33;;;;;;;37.77;23.67;;;3.20;99.90;;;;;;4851946;29;20470;-82
2023/01/24 00:36:59;;;;;;;39.83;24.03;;;3.20;99.90;;;;;;4861267;29;20454;-82
2023/01/24 00:39:25;;;;;;;42.67;24.07;;;3.20;99.90;;;;;;4840011;29;20045;-82
2023/01/24 00:41:51;;;;;;;36.47;22.73;;;3.20;99.90;;;;;;4836734;29;20042;-82
2023/01/24 00:44:16;;;;;;;37.13;21.53;;;3.20;99.90;;;;;;4823272;29;20101;-82
2023/01/24 00:46:42;;;;;;;36.30;21.87;;;3.20;99.90;;;;;;4830007;29;20057;-82
2023/01/24 00:49:08;;;;;;;35.27;22.67;;;3.30;99.90;;;;;;4844572;29;20500;-82
2023/01/24 00:51:34;;;;;;;35.63;21.67;;;3.30;99.90;;;;;;4808361;29;20486;-82
2023/01/24 00:54:00;;;;;;;37.97;22.20;;;3.30;99.90;;;;;;4839882;29;20048;-82
2023/01/24 00:56:26;;;;;;;36.57;22.20;;;3.30;99.90;;;;;;4847777;29;20036;-82
2023/01/24 00:58:51;;;;;;;38.03;23.13;;;3.30;99.90;;;;;;4832842;29;20053;-82
2023/01/24 01:01:17;;;;;;;33.93;22.17;;;3.30;99.90;;;;;;4829468;29;20052;-82
2023/01/24 01:03:43;;;;;;;36.07;22.53;;;3.20;99.90;;;;;;4853033;29;20068;-82
2023/01/24 01:06:16;;;;;;;36.90;22.10;;;3.20;99.90;;;;;;4862613;29;20049;-82
2023/01/24 01:08:42;;;;;;;39.90;22.33;;;3.20;99.90;;;;;;4830945;29;20052;-82
2023/01/24 01:11:08;;;;;;;38.90;22.97;;;3.20;99.90;;;;;;4829452;29;20053;-82
2023/01/24 01:13:34;;;;;;;36.73;22.30;;;3.20;99.90;;;;;;4837832;29;20493;-82
2023/01/24 01:16:05;;;;;;;38.10;22.00;;;3.20;99.90;;;;;;4858917;29;20045;-82
2023/01/24 01:18:32;;;;;;;37.60;23.25;;;3.20;99.90;;;;;;4830037;29;20053;-82
2023/01/24 01:20:58;;;;;;;38.77;22.53;;;3.20;99.90;;;;;;4840706;29;20056;-82
2023/01/24 01:23:23;;;;;;;33.97;20.90;;;3.20;99.90;;;;;;4855047;29;20405;-82
2023/01/24 01:25:49;;;;;;;36.97;22.50;;;3.20;99.90;;;;;;4842616;29;20048;-82
2023/01/24 01:28:15;;;;;;;38.00;21.27;;;3.20;99.90;;;;;;4817185;29;20056;-82
2023/01/24 01:30:40;;;;;;;38.03;22.97;;;3.20;99.90;;;;;;4838280;29;20534;-82
2023/01/24 01:33:06;;;;;;;35.97;22.20;;;3.20;99.90;;;;;;4843795;29;20072;-82
2023/01/24 01:35:32;;;;;;;36.80;22.67;;;3.20;99.90;;;;;;4873013;29;20056;-82
2023/01/24 01:37:58;;;;;;;36.43;21.43;;;3.20;99.90;;;;;;4854717;29;20041;-82
2023/01/24 01:40:23;;;;;;;32.43;21.90;;;3.20;99.90;;;;;;4828776;29;20037;-82
2023/01/24 01:42:52;;;;;;;35.33;21.10;;;3.20;99.90;;;;;;4836658;29;20057;-82
2023/01/24 01:45:48;;;;;;;35.43;21.40;;;3.20;99.90;;;;;;4837852;29;20516;-82
2023/01/24 01:48:33;;;;;;;34.73;20.97;;;3.20;99.90;;;;;;4864949;29;20044;-82
2023/01/24 01:51:14;;;;;;;32.07;19.07;;;3.20;99.90;;;;;;4848629;29;20049;-82
2023/01/24 01:53:56;;;;;;;30.57;19.13;;;3.20;99.90;;;;;;4828799;29;20053;-82
2023/01/24 01:57:02;;;;;;;33.45;20.05;;;3.30;99.90;;;;;;4837427;29;20121;-82
2023/01/24 01:59:35;;;;;;;30.40;19.27;;;3.30;99.90;;;;;;4823693;29;20081;-82
2023/01/24 02:02:03;;;;;;;34.43;19.73;;;3.30;99.90;;;;;;4842947;29;20129;-82
2023/01/24 02:04:34;;;;;;;32.40;20.33;;;3.30;99.90;;;;;;4820890;29;20058;-82
2023/01/24 02:07:07;;;;;;;33.17;19.80;;;3.30;99.90;;;;;;4837721;29;20052;-82
2023/01/24 02:09:42;;;;;;;34.63;20.27;;;3.30;99.90;;;;;;4840568;29;20480;-82
2023/01/24 02:12:30;;;;;;;31.87;19.53;;;3.30;99.90;;;;;;4846521;29;20081;-82
2023/01/24 02:17:50;;;;;;;30.17;19.47;;;3.30;99.90;;;;;;4852411;29;20124;-82
2023/01/24 02:20:28;;;;;;;32.10;19.60;;;3.30;99.90;;;;;;4851264;29;20046;-82
2023/01/24 02:23:24;;;;;;;30.37;19.77;;;3.30;99.90;;;;;;4828087;29;20056;-82
2023/01/24 02:26:11;;;;;;;32.00;20.50;;;3.30;99.90;;;;;;4826507;29;20196;-82
2023/01/24 02:28:38;;;;;;;32.43;20.43;;;3.30;99.90;;;;;;4841713;29;20095;-82
2023/01/24 02:31:04;;;;;;;31.07;19.90;;;3.30;99.90;;;;;;4829648;29;20465;-82
2023/01/24 02:33:31;;;;;;;27.23;16.80;;;3.30;99.90;;;;;;4845707;29;20057;-82
2023/01/24 02:36:11;;;;;;;27.57;16.83;;;3.30;99.90;;;;;;4831911;29;20045;-82
2023/01/24 02:38:40;;;;;;;24.53;16.50;;;3.30;99.90;;;;;;4820231;29;20054;-82
2023/01/24 02:41:07;;;;;;;30.00;18.17;;;3.30;99.90;;;;;;4837173;29;20055;-82
2023/01/24 02:43:38;;;;;;;28.60;17.27;;;3.30;99.90;;;;;;4822123;29;20058;-82
2023/01/24 02:46:04;;;;;;;28.20;17.80;;;3.30;99.90;;;;;;4836312;29;20042;-82
2023/01/24 02:48:29;;;;;;;26.63;17.43;;;3.30;99.90;;;;;;4833913;29;20038;-82
2023/01/24 02:53:39;;;;;;;27.40;17.07;;;3.30;99.90;;;;;;4845156;29;20490;-82
2023/01/24 02:58:52;;;;;;;25.57;17.40;;;3.30;99.90;;;;;;4832573;29;20042;-82
2023/01/24 03:01:19;;;;;;;28.00;18.03;;;3.40;99.90;;;;;;4824529;29;20505;-82
2023/01/24 03:03:46;;;;;;;27.77;18.13;;;3.30;99.90;;;;;;4838955;29;20454;-82
2023/01/24 03:06:13;;;;;;;28.07;18.07;;;3.30;99.90;;;;;;4846615;29;20053;-82
2023/01/24 03:08:39;;;;;;;26.87;17.53;;;3.30;99.90;;;;;;4853210;29;20506;-81
2023/01/24 03:11:06;;;;;;;26.40;17.07;;;3.30;99.90;;;;;;4825421;29;20152;-82
2023/01/24 03:35:30;;;;;;;30.67;18.17;;;3.30;99.90;;;;;;4848256;29;20053;-82
2023/01/24 03:40:41;;;;;;;26.17;17.63;;;3.30;99.90;;;;;;4830696;29;20765;-82
2023/01/24 03:43:07;;;;;;;28.43;17.83;;;3.40;99.90;;;;;;4865315;29;20044;-82
2023/01/24 03:45:35;;;;;;;27.57;17.37;;;3.30;99.90;;;;;;4846284;29;20398;-82
2023/01/24 03:48:04;;;;;;;28.07;17.67;;;3.30;99.90;;;;;;4853367;29;20497;-81
2023/01/24 03:53:21;;;;;;;24.93;16.77;;;3.30;99.90;;;;;;4844517;29;20132;-82
2023/01/24 03:55:55;;;;;;;27.20;16.70;;;3.30;99.90;;;;;;4823735;29;20116;-82
2023/01/24 03:58:22;;;;;;;25.83;16.77;;;3.30;99.90;;;;;;4812970;29;20049;-82
2023/01/24 04:00:48;;;;;;;26.23;16.37;;;3.30;99.90;;;;;;4798342;29;20088;-82
2023/01/24 04:03:13;;;;;;;25.23;15.90;;;3.30;99.90;;;;;;4811653;29;20448;-82
2023/01/24 04:05:39;;;;;;;25.03;16.00;;;3.30;99.90;;;;;;4812603;29;20066;-82
2023/01/24 04:08:05;;;;;;;24.07;14.73;;;3.30;99.90;;;;;;4842765;29;20085;-81
2023/01/24 04:10:31;;;;;;;20.83;14.70;;;3.30;99.90;;;;;;4843630;29;20073;-82
2023/01/24 04:12:57;;;;;;;19.80;14.13;;;3.30;99.90;;;;;;4855797;29;20442;-82
2023/01/24 04:15:29;;;;;;;21.23;15.00;;;3.30;99.90;;;;;;4829890;29;20049;-82
2023/01/24 04:18:00;;;;;;;22.23;13.88;;;3.30;99.90;;;;;;4822473;29;20048;-82
2023/01/24 04:20:27;;;;;;;21.37;14.60;;;3.30;99.90;;;;;;4846941;29;20037;-82
2023/01/24 04:22:53;;;;;;;21.70;14.73;;;3.30;99.90;;;;;;4845990;29;20062;-81
2023/01/24 04:25:19;;;;;;;26.10;17.23;;;3.30;99.90;;;;;;4830532;29;20585;-82
2023/01/24 04:27:45;;;;;;;26.37;16.80;;;3.30;99.90;;;;;;4862297;29;20045;-82
2023/01/24 04:30:13;;;;;;;25.43;16.30;;;3.30;99.90;;;;;;4845804;29;20041;-82
2023/01/24 04:32:39;;;;;;;24.40;16.57;;;3.30;99.90;;;;;;4829884;29;20509;-81
2023/01/24 04:35:05;;;;;;;24.07;16.00;;;3.30;99.90;;;;;;4845277;29;20053;-82
2023/01/24 04:37:32;;;;;;;26.73;16.47;;;3.30;99.90;;;;;;4820443;29;20412;-81
2023/01/24 04:40:00;;;;;;;23.63;15.37;;;3.30;99.90;;;;;;4819816;29;20042;-82
2023/01/24 04:42:26;;;;;;;22.80;14.90;;;3.30;99.90;;;;;;4828245;29;20049;-82
2023/01/24 04:44:51;;;;;;;22.27;14.33;;;3.30;99.90;;;;;;4817892;29;20041;-82
2023/01/24 04:47:17;;;;;;;23.67;15.17;;;3.30;99.90;;;;;;4835876;29;20052;-81
2023/01/24 04:49:43;;;;;;;21.53;13.47;;;3.30;99.90;;;;;;4847456;29;20510;-81
2023/01/24 04:52:11;;;;;;;20.03;12.73;;;3.30;99.90;;;;;;4842392;29;20140;-82
2023/01/24 04:54:40;;;;;;;21.87;13.33;;;3.30;99.90;;;;;;4811844;29;20053;-81
2023/01/24 04:57:07;;;;;;;18.33;12.77;;;3.30;99.90;;;;;;4842599;29;20574;-81
2023/01/24 04:59:32;;;;;;;18.63;12.53;;;3.30;99.90;;;;;;4848305;29;20128;-81
2023/01/24 05:01:58;;;;;;;17.87;12.23;;;3.30;99.90;;;;;;4832430;29;20128;-81
2023/01/24 05:04:24;;;;;;;17.63;11.57;;;3.20;99.90;;;;;;4873630;29;20058;-81
2023/01/24 05:06:50;;;;;;;20.47;12.30;;;3.20;99.90;;;;;;4829412;29;20050;-81
2023/01/24 05:09:15;;;;;;;18.13;11.47;;;3.20;99.90;;;;;;4819461;29;20475;-81
2023/01/24 05:11:41;;;;;;;18.53;11.67;;;3.20;99.90;;;;;;4816215;29;20133;-81
2023/01/24 05:14:09;;;;;;;19.27;12.47;;;3.20;99.90;;;;;;4822951;29;20496;-81
2023/01/24 05:16:35;;;;;;;16.57;11.50;;;3.20;99.90;;;;;;4829340;29;20092;-82
2023/01/24 05:19:01;;;;;;;15.87;10.67;;;3.20;99.90;;;;;;4839535;29;20073;-81
2023/01/24 05:21:27;;;;;;;19.13;12.00;;;3.20;99.90;;;;;;4832360;29;20045;-82
2023/01/24 05:23:53;;;;;;;18.00;11.83;;;3.20;99.90;;;;;;4831734;29;20055;-81
2023/01/24 05:26:21;;;;;;;18.00;12.43;;;3.20;99.90;;;;;;4877715;29;20037;-81
2023/01/24 05:28:51;;;;;;;19.30;12.27;;;3.20;99.90;;;;;;4846042;29;20121;-81
2023/01/24 05:31:17;;;;;;;19.90;12.83;;;3.20;99.90;;;;;;4846037;29;20053;-81
2023/01/24 05:33:43;;;;;;;19.50;12.30;;;3.20;99.90;;;;;;4858494;29;20185;-81
2023/01/24 05:36:15;;;;;;;18.17;12.23;;;3.20;99.90;;;;;;4820489;29;20049;-81
2023/01/24 05:38:42;;;;;;;17.20;11.90;;;3.20;99.90;;;;;;4819068;29;20042;-81
2023/01/24 05:41:09;;;;;;;19.53;12.73;;;3.20;99.90;;;;;;4795692;29;20049;-81
2023/01/24 05:43:36;;;;;;;17.53;11.47;;;3.20;99.90;;;;;;4810562;29;20050;-82
2023/01/24 05:46:05;;;;;;;18.40;12.37;;;3.20;99.90;;;;;;4810382;29;20052;-81
2023/01/24 05:48:31;;;;;;;20.03;12.23;;;3.20;99.90;;;;;;4825571;29;20033;-80
2023/01/24 05:51:03;;;;;;;19.17;11.90;;;3.20;99.90;;;;;;4861688;29;20041;-81
2023/01/24 05:53:30;;;;;;;17.63;12.30;;;3.20;99.90;;;;;;4841720;29;20043;-81
2023/01/24 05:55:57;;;;;;;18.60;12.90;;;3.20;99.90;;;;;;4835137;29;20045;-80
2023/01/24 05:58:27;;;;;;;17.33;11.93;;;3.20;99.90;;;;;;4829123;29;20045;-80
2023/01/24 06:00:53;;;;;;;18.27;12.13;;;3.20;99.90;;;;;;4850752;29;20045;-81
2023/01/24 06:03:20;;;;;;;18.00;11.93;;;3.20;99.90;;;;;;4844313;29;20049;-80
2023/01/24 06:05:52;;;;;;;19.73;12.47;;;3.20;99.90;;;;;;4838741;29;20048;-81
2023/01/24 06:08:18;;;;;;;19.38;12.93;;;3.20;99.90;;;;;;4832469;29;20052;-81
2023/01/24 06:10:44;;;;;;;18.87;12.97;;;3.20;99.90;;;;;;4826764;29;20405;-81
2023/01/24 06:13:11;;;;;;;18.53;12.43;;;3.20;99.90;;;;;;4862397;29;20172;-82
2023/01/24 06:15:38;;;;;;;20.70;12.63;;;3.10;99.90;;;;;;4849604;29;20038;-82
2023/01/24 06:18:04;;;;;;;20.40;12.10;;;3.10;99.90;;;;;;4821370;29;20045;-81
2023/01/24 06:20:30;;;;;;;18.67;12.77;;;3.10;99.90;;;;;;4843010;29;20041;-81
2023/01/24 06:23:04;;;;;;;20.40;12.27;;;3.10;99.90;;;;;;4821013;29;20414;-82
2023/01/24 06:25:30;;;;;;;17.87;11.97;;;3.10;99.90;;;;;;4825884;29;20064;-82
2023/01/24 06:27:56;;;;;;;18.30;11.97;;;3.10;99.90;;;;;;4811474;29;20117;-81
2023/01/24 06:30:22;;;;;;;18.23;12.67;;;3.10;99.90;;;;;;4833578;29;20045;-83
2023/01/24 06:33:33;;;;;;;20.57;12.20;;;3.10;99.90;;;;;;4873787;29;20439;-81
2023/01/24 06:36:25;;;;;;;17.70;12.33;;;3.10;99.90;;;;;;4827313;29;20442;-81
2023/01/24 06:38:51;;;;;;;17.27;12.23;;;3.10;99.90;;;;;;4861438;29;20392;-81
2023/01/24 06:41:17;;;;;;;16.97;11.90;;;3.10;99.90;;;;;;4838601;29;20089;-81
2023/01/24 06:43:44;;;;;;;18.47;12.63;;;3.10;99.90;;;;;;4850457;29;20115;-82
2023/01/24 06:46:11;;;;;;;18.10;12.40;;;3.10;99.90;;;;;;4837265;29;20495;-81
2023/01/24 06:48:37;;;;;;;18.27;11.93;;;3.10;99.90;;;;;;4813317;29;20046;-81
2023/01/24 06:51:04;;;;;;;17.93;12.10;;;3.10;99.90;;;;;;4850659;29;20104;-81
2023/01/24 06:53:31;;;;;;;19.37;12.90;;;3.00;99.90;;;;;;4830575;29;20644;-81
2023/01/24 06:55:57;;;;;;;17.47;12.23;;;3.00;99.90;;;;;;4830773;29;20053;-81
2023/01/24 06:58:22;;;;;;;17.53;12.43;;;3.00;99.90;;;;;;4860889;29;20049;-81
2023/01/24 07:00:48;;;;;;;19.93;13.10;;;3.00;99.90;;;;;;4831999;29;20056;-82
2023/01/24 07:03:14;;;;;;;18.67;12.63;;;3.00;99.90;;;;;;4830958;29;20172;-82
2023/01/24 07:05:39;;;;;;;19.60;13.17;;;3.00;99.90;;;;;;4821276;29;20752;-81
2023/01/24 07:08:06;;;;;;;20.27;13.73;;;3.00;99.90;;;;;;4841370;29;20129;-82
2023/01/24 07:10:32;;;;;;;20.43;13.53;;;3.00;99.90;;;;;;4828131;29;20076;-81
2023/01/24 07:12:58;;;;;;;19.67;13.73;;;3.00;99.90;;;;;;4829338;29;20076;-81
2023/01/24 07:15:24;;;;;;;18.40;12.60;;;3.00;99.90;;;;;;4861607;29;20056;-81
2023/01/24 07:17:50;;;;;;;19.60;12.40;;;3.00;99.90;;;;;;4846528;29;20041;-81
2023/01/24 07:20:16;;;;;;;18.63;11.80;;;3.00;99.90;;;;;;4846101;29;20057;-81
2023/01/24 07:22:43;;;;;;;21.37;13.70;;;3.00;99.90;;;;;;4846375;29;20105;-81
2023/01/24 07:25:14;;;;;;;21.37;13.10;;;3.00;99.90;;;;;;4846022;29;20047;-81
2023/01/24 07:27:42;;;;;;;20.52;13.45;;;3.00;99.90;;;;;;4841608;29;20456;-81
2023/01/24 07:30:09;;;;;;;19.90;13.13;;;3.00;99.90;;;;;;4822746;29;20128;-81
2023/01/24 07:32:35;;;;;;;19.03;13.23;;;3.00;99.90;;;;;;4846034;29;20520;-81
2023/01/24 07:35:01;;;;;;;19.77;13.27;;;3.00;99.90;;;;;;4815787;29;20101;-81
2023/01/24 07:37:26;;;;;;;18.03;12.60;;;3.00;99.90;;;;;;4843347;29;20074;-81
2023/01/24 07:39:52;;;;;;;20.10;13.13;;;3.00;99.90;;;;;;4828274;29;20041;-81
2023/01/24 07:42:18;;;;;;;20.80;14.20;;;3.00;99.90;;;;;;4815734;29;20049;-81
2023/01/24 07:44:43;;;;;;;19.40;12.40;;;3.00;99.90;;;;;;4846095;29;20041;-81
2023/01/24 07:47:09;;;;;;;20.97;13.27;;;3.00;99.90;;;;;;4839217;29;20046;-81
2023/01/24 07:49:35;;;;;;;19.73;12.93;;;3.00;99.90;;;;;;4845715;29;20041;-82
2023/01/24 07:52:00;;;;;;;21.07;12.77;;;3.00;99.90;;;;;;4812593;29;20077;-81
2023/01/24 07:54:26;;;;;;;19.70;12.53;;;3.00;99.90;;;;;;4844217;29;20514;-80
2023/01/24 07:56:52;;;;;;;20.40;13.57;;;3.00;99.90;;;;;;4840441;29;20069;-81
2023/01/24 07:59:18;;;;;;;20.33;13.03;;;3.00;99.90;;;;;;4847445;29;20079;-81
2023/01/24 08:01:43;;;;;;;19.73;13.20;;;3.00;99.90;;;;;;4833761;29;20052;-81
2023/01/24 08:04:09;;;;;;;19.43;13.30;;;3.00;99.90;;;;;;4855261;29;20389;-81
2023/01/24 08:06:35;;;;;;;18.37;12.73;;;3.00;99.90;;;;;;4864634;29;20048;-82
2023/01/24 08:09:01;;;;;;;19.53;12.77;;;3.00;99.90;;;;;;4818467;29;20153;-81
2023/01/24 08:11:27;;;;;;;21.63;12.90;;;3.00;99.90;;;;;;4838363;29;20053;-81
2023/01/24 08:13:54;;;;;;;20.03;12.40;;;3.00;99.90;;;;;;4862289;29;20506;-81
2023/01/24 08:16:23;;;;;;;18.70;13.10;;;3.00;99.90;;;;;;4856568;29;20120;-81
2023/01/24 08:18:49;;;;;;;20.43;12.43;;;3.00;99.90;;;;;;4845049;29;20052;-81
2023/01/24 08:21:14;;;;;;;20.00;12.47;;;3.00;99.90;;;;;;4832462;29;20037;-81
2023/01/24 08:23:40;;;;;;;19.07;13.00;;;3.00;99.90;;;;;;4842043;29;20048;-81
2023/01/24 08:26:06;;;;;;;22.10;13.00;;;3.00;99.90;;;;;;4819815;29;20047;-81
2023/01/24 08:28:33;;;;;;;18.37;12.37;;;3.00;99.90;;;;;;4866776;29;20041;-81
2023/01/24 08:30:59;;;;;;;19.50;13.40;;;3.00;99.90;;;;;;4829772;29;20114;-82
2023/01/24 08:33:25;;;;;;;18.83;12.70;;;3.00;99.90;;;;;;4814947;29;20509;-81
2023/01/24 08:35:51;;;;;;;18.03;12.80;;;3.00;99.90;;;;;;4815019;29;20085;-81
2023/01/24 08:38:17;;;;;;;22.57;13.63;;;3.00;99.90;;;;;;4830460;29;20229;-81
2023/01/24 08:40:43;;;;;;;19.37;13.80;;;3.00;99.90;;;;;;4859985;29;20045;-81
2023/01/24 08:43:09;;;;;;;18.13;13.07;;;3.00;99.90;;;;;;4848746;29;20055;-81
2023/01/24 08:45:35;;;;;;;21.37;13.60;;;3.00;99.90;;;;;;4842702;29;20136;-81
2023/01/24 08:48:00;;;;;;;21.93;13.43;;;3.00;99.90;;;;;;4833248;29;20101;-81
2023/01/24 08:50:27;;;;;;;20.97;13.03;;;3.00;99.90;;;;;;4837678;29;20349;-81
2023/01/24 08:52:56;;;;;;;19.37;13.43;;;3.00;99.90;;;;;;4829006;29;20057;-81
2023/01/24 08:55:23;;;;;;;19.30;13.47;;;3.10;99.90;;;;;;4813536;29;20052;-81
2023/01/24 08:57:49;;;;;;;16.27;11.70;;;3.10;99.90;;;;;;4829608;29;20490;-81
2023/01/24 09:00:15;;;;;;;20.80;13.60;;;3.10;99.90;;;;;;4848818;29;20052;-81
2023/01/24 09:02:41;;;;;;;19.40;13.27;;;3.10;99.90;;;;;;4819629;29;20112;-82
2023/01/24 09:05:08;;;;;;;18.23;12.73;;;3.10;99.90;;;;;;4844748;29;20057;-81
2023/01/24 09:07:40;;;;;;;18.27;12.87;;;3.10;99.90;;;;;;4830001;29;20450;-81
2023/01/24 09:10:06;;;;;;;18.40;12.88;;;3.10;99.90;;;;;;4844739;29;20120;-81
2023/01/24 09:12:32;;;;;;;20.07;13.47;;;3.10;99.90;;;;;;4835777;29;20060;-81
2023/01/24 09:14:58;;;;;;;20.43;13.67;;;3.10;99.90;;;;;;4829654;29;20041;-80
2023/01/24 09:17:24;;;;;;;20.20;13.70;;;3.10;99.90;;;;;;4857349;29;20073;-81
2023/01/24 09:19:50;;;;;;;18.50;13.20;;;3.20;99.90;;;;;;4832344;29;20039;-81
2023/01/24 09:22:16;;;;;;;21.17;13.63;;;3.20;99.90;;;;;;4829969;29;20493;-81
2023/01/24 09:24:41;;;;;;;19.60;13.40;;;3.20;99.90;;;;;;4847630;29;20049;-81
2023/01/24 09:27:07;;;;;;;19.87;13.70;;;3.20;99.90;;;;;;4862825;29;20072;-81
2023/01/24 09:29:33;;;;;;;19.40;12.87;;;3.20;99.90;;;;;;4834376;29;20461;-81
2023/01/24 09:31:58;;;;;;;18.60;13.00;;;3.20;99.90;;;;;;4846033;29;20042;-81
2023/01/24 09:34:24;;;;;;;19.03;12.30;;;3.20;99.90;;;;;;4813786;29;20064;-81
2023/01/24 09:36:50;;;;;;;18.57;12.77;;;3.20;99.90;;;;;;4828282;29;20122;-81
2023/01/24 09:39:16;;;;;;;21.57;13.97;;;3.20;99.90;;;;;;4867071;29;20075;-81
2023/01/24 09:42:24;;;;;;;18.23;13.53;;;3.20;99.90;;;;;;4850513;29;20036;-81
2023/01/24 09:45:13;;;;;;;19.67;13.30;;;3.20;99.90;;;;;;4846239;29;20049;-81
2023/01/24 09:47:50;;;;;;;19.70;13.50;;;3.20;99.90;;;;;;4877861;29;20097;-81
2023/01/24 09:50:42;;;;;;;20.33;12.90;;;3.20;99.90;;;;;;4843861;29;20049;-81
2023/01/24 09:53:17;;;;;;;18.30;13.45;;;3.20;99.90;;;;;;4825775;29;20045;-81
2023/01/24 09:55:43;;;;;;;18.47;13.73;;;3.20;99.90;;;;;;4842162;29;20120;-81
2023/01/24 09:58:31;;;;;;;18.30;13.33;;;3.20;99.90;;;;;;4847499;29;20041;-81
2023/01/24 10:01:07;;;;;;;18.60;12.93;;;3.20;99.90;;;;;;4842266;29;20103;-81
2023/01/24 10:03:33;;;;;;;19.13;13.27;;;3.20;99.90;;;;;;4834395;29;20085;-81
2023/01/24 10:06:06;;;;;;;18.50;13.30;;;3.30;99.90;;;;;;4798879;29;20502;-81
2023/01/24 10:08:54;;;;;;;18.77;12.03;;;3.30;99.90;;;;;;4823143;29;20067;-81
2023/01/24 10:11:43;;;;;;;20.30;13.07;;;3.40;99.90;;;;;;4847389;29;21618;-81
2023/01/24 10:14:12;;;;;;;18.03;12.53;;;3.40;99.90;;;;;;4853899;29;20048;-83
2023/01/24 10:17:01;;;;;;;20.27;13.33;;;3.40;99.90;;;;;;4859815;29;20502;-81
2023/01/24 10:19:33;;;;;;;20.20;14.33;;;3.50;99.90;;;;;;4814787;29;20479;-81
2023/01/24 10:22:04;;;;;;;18.50;13.43;;;3.40;99.90;;;;;;4821111;29;20385;-81
2023/01/24 10:24:38;;;;;;;19.73;13.25;;;3.50;99.90;;;;;;4841396;29;20045;-81
2023/01/24 10:27:23;;;;;;;17.50;13.20;;;3.50;99.90;;;;;;4834683;29;20056;-81
2023/01/24 10:29:58;;;;;;;20.07;13.77;;;3.50;99.90;;;;;;4840315;29;20089;-81
2023/01/24 10:32:34;;;;;;;20.67;13.77;;;3.50;99.90;;;;;;4824112;29;20088;-82
2023/01/24 10:35:23;;;;;;;20.00;13.77;;;3.50;99.90;;;;;;4826156;29;20113;-82
2023/01/24 10:37:55;;;;;;;17.50;13.10;;;3.60;99.90;;;;;;4831236;29;20053;-81
2023/01/24 10:40:24;;;;;;;20.48;13.27;;;3.60;99.90;;;;;;4828494;29;20038;-81
2023/01/24 10:42:50;;;;;;;19.57;13.57;;;3.60;99.90;;;;;;4841562;29;20042;-81
2023/01/24 10:45:22;;;;;;;20.00;13.57;;;3.60;99.90;;;;;;4845829;29;20044;-81
2023/01/24 10:47:59;;;;;;;18.20;13.10;;;3.60;99.90;;;;;;4837107;29;20051;-82
2023/01/24 10:50:33;;;;;;;19.60;13.47;;;3.60;99.90;;;;;;4831131;29;20124;-81
2023/01/24 10:53:13;;;;;;;19.37;13.10;;;3.50;99.90;;;;;;4828267;29;20124;-81
2023/01/24 10:55:39;;;;;;;19.70;13.67;;;3.60;99.90;;;;;;4839987;29;20061;-82
2023/01/24 10:58:17;;;;;;;20.57;13.83;;;3.50;99.90;;;;;;4825278;29;20387;-82
2023/01/24 11:00:45;;;;;;;20.50;13.93;;;3.50;99.90;;;;;;4834047;29;20141;-82
2023/01/24 11:03:19;;;;;;;20.27;13.30;;;3.50;99.90;;;;;;4846922;29;20041;-81
2023/01/24 11:05:51;;;;;;;22.50;13.60;;;3.50;99.90;;;;;;4824077;29;20048;-82
2023/01/24 11:08:22;;;;;;;19.75;13.15;;;3.50;99.90;;;;;;4865363;29;20273;-82
2023/01/24 11:10:57;;;;;;;18.10;12.93;;;3.50;99.90;;;;;;4828401;29;20088;-81
2023/01/24 11:13:29;;;;;;;20.57;13.87;;;3.50;99.90;;;;;;4857114;29;20049;-83
2023/01/24 11:16:01;;;;;;;19.20;13.25;;;3.40;99.90;;;;;;4845591;29;20113;-83
2023/01/24 11:18:28;;;;;;;19.88;13.82;;;3.40;99.90;;;;;;4865125;29;20418;-82
2023/01/24 11:21:14;;;;;;;19.77;13.63;;;3.40;99.90;;;;;;4850160;29;20046;-81
2023/01/24 11:23:41;;;;;;;21.03;14.03;;;3.40;99.90;;;;;;4842479;29;20038;-82
2023/01/24 11:26:27;;;;;;;20.47;14.80;;;3.40;99.90;;;;;;4821232;29;20045;-81
2023/01/24 11:29:08;;;;;;;25.57;20.67;;;3.50;99.90;;;;;;4812964;29;20046;-82
2023/01/24 11:31:42;;;;;;;24.53;17.50;;;3.50;99.90;;;;;;4832087;29;20088;-82
2023/01/24 11:34:43;;;;;;;36.07;26.23;;;3.50;99.90;;;;;;4838786;29;20057;-81
2023/01/24 11:37:30;;;;;;;26.55;21.15;;;3.50;99.90;;;;;;4817615;29;20042;-81
2023/01/24 11:40:19;;;;;;;26.50;20.47;;;3.50;99.90;;;;;;4840643;29;20082;-81
2023/01/24 11:43:21;;;;;;;25.80;18.40;;;3.50;99.90;;;;;;4830411;29;20037;-82
2023/01/24 11:46:21;;;;;;;22.83;15.83;;;3.50;99.90;;;;;;4825448;29;20105;-81
2023/01/24 11:49:10;;;;;;;48.07;32.47;;;3.50;99.90;;;;;;4805027;29;20324;-81
2023/01/24 11:52:14;;;;;;;33.37;22.70;;;3.50;99.90;;;;;;4812091;29;20088;-82
2023/01/24 11:54:47;;;;;;;27.60;20.17;;;3.50;99.90;;;;;;4791993;29;20518;-82
2023/01/24 11:57:21;;;;;;;39.30;24.87;;;3.60;99.90;;;;;;4818700;29;20049;-82
2023/01/24 11:59:54;;;;;;;22.17;14.97;;;3.50;99.90;;;;;;4846446;29;20405;-82
2023/01/24 12:02:23;;;;;;;50.43;28.53;;;3.50;99.90;;;;;;4851629;29;20056;-81
2023/01/24 12:05:16;;;;;;;81.47;42.80;;;3.50;99.90;;;;;;4850613;29;20051;-89
2023/01/24 12:08:03;;;;;;;31.50;20.80;;;3.50;99.90;;;;;;4839804;29;20045;-91
2023/01/24 12:10:47;;;;;;;30.67;20.73;;;3.60;99.90;;;;;;4863174;29;20504;-89
2023/01/24 12:13:30;;;;;;;22.43;15.60;;;3.50;99.90;;;;;;4848032;29;20044;-89
2023/01/24 12:16:18;;;;;;;19.53;14.13;;;3.60;99.90;;;;;;4838363;29;20048;-90
2023/01/24 12:19:22;;;;;;;20.93;14.40;;;3.60;99.90;;;;;;4838830;29;20047;-89
2023/01/24 12:21:53;;;;;;;22.30;15.20;;;3.60;99.90;;;;;;4837400;29;20133;-90
2023/01/24 12:24:24;;;;;;;21.33;14.50;;;3.70;99.90;;;;;;4836547;29;20057;-90
2023/01/24 12:26:53;;;;;;;21.00;14.60;;;3.60;99.90;;;;;;4850530;29;20423;-89
2023/01/24 12:29:28;;;;;;;23.10;14.57;;;3.60;99.90;;;;;;4835223;29;20068;-89
2023/01/24 12:32:31;;;;;;;19.80;13.90;;;3.70;99.90;;;;;;4842131;29;20045;-90
2023/01/24 12:35:21;;;;;;;23.40;14.60;;;3.70;99.90;;;;;;4831150;29;20096;-89
2023/01/24 12:38:00;;;;;;;21.40;13.87;;;3.60;99.90;;;;;;4835482;29;20091;-89
2023/01/24 12:40:54;;;;;;;24.63;15.80;;;3.60;99.90;;;;;;4842292;29;20051;-89
2023/01/24 12:43:52;;;;;;;22.33;14.20;;;3.60;99.90;;;;;;4847825;29;20382;-89
2023/01/24 12:46:37;;;;;;;22.57;15.57;;;3.60;99.90;;;;;;4847478;29;20493;-89
2023/01/24 12:49:19;;;;;;;20.17;14.20;;;3.60;99.90;;;;;;4829241;29;20056;-89
2023/01/24 12:52:02;;;;;;;19.63;13.38;;;3.50;99.90;;;;;;4831044;29;20080;-89
2023/01/24 12:54:34;;;;;;;19.90;13.80;;;3.50;99.90;;;;;;4844984;29;20068;-89
2023/01/24 12:57:07;;;;;;;20.27;14.27;;;3.40;99.90;;;;;;4832065;29;20455;-89
2023/01/24 12:59:33;;;;;;;22.37;13.67;;;3.40;99.90;;;;;;4830790;29;20049;-89
2023/01/24 13:02:11;;;;;;;22.67;15.97;;;3.40;99.90;;;;;;4801347;29;20128;-90
2023/01/24 13:04:58;;;;;;;20.00;14.27;;;3.50;99.90;;;;;;4827769;29;20085;-89
2023/01/24 13:07:38;;;;;;;20.20;13.80;;;3.50;99.90;;;;;;4826999;29;20045;-89
2023/01/24 13:10:36;;;;;;;20.17;14.43;;;3.50;99.90;;;;;;4827591;29;20050;-89
2023/01/24 13:13:03;;;;;;;20.87;14.03;;;3.50;99.90;;;;;;4820948;29;20041;-89
2023/01/24 13:16:14;;;;;;;29.97;19.67;;;3.40;99.90;;;;;;4831023;29;20041;-90
2023/01/24 13:19:03;;;;;;;20.10;14.27;;;3.40;99.90;;;;;;4822188;29;20577;-89
2023/01/24 13:21:51;;;;;;;26.33;18.37;;;3.40;99.90;;;;;;4826183;29;20045;-90
2023/01/24 13:24:49;;;;;;;22.47;14.97;;;3.50;99.90;;;;;;4838436;29;20584;-89
2023/01/24 13:27:22;;;;;;;27.97;19.73;;;3.50;99.90;;;;;;4837512;29;20490;-90
2023/01/24 13:30:11;;;;;;;24.53;17.23;;;3.50;99.90;;;;;;4839999;29;20139;-90
2023/01/24 13:32:39;;;;;;;23.40;15.20;;;3.50;99.90;;;;;;4836909;29;20053;-90